sensor_id;sensor_type;location;lat;lon;timestamp;P1;durP1;ratioP1;P2;durP2;ratioP2
6566;SDS011;3317;43.994;22.878;2023-02-22T00:00:13;6.60;;;4.90;;
6566;SDS011;3317;43.994;22.878;2023-02-22T00:02:47;6.00;;;4.07;;
6566;SDS011;3317;43.994;22.878;2023-02-22T00:05:15;6.43;;;4.50;;
6566;SDS011;3317;43.994;22.878;2023-02-22T00:07:46;6.70;;;4.40;;
6566;SDS011;3317;43.994;22.878;2023-02-22T00:10:13;6.47;;;4.20;;
6566;SDS011;3317;43.994;22.878;2023-02-22T00:12:45;8.20;;;4.53;;
6566;SDS011;3317;43.994;22.878;2023-02-22T00:15:14;5.10;;;4.20;;
6566;SDS011;3317;43.994;22.878;2023-02-22T00:17:42;8.77;;;4.90;;
6566;SDS011;3317;43.994;22.878;2023-02-22T00:20:09;10.43;;;4.50;;
6566;SDS011;3317;43.994;22.878;2023-02-22T00:22:39;7.27;;;4.30;;
6566;SDS011;3317;43.994;22.878;2023-02-22T00:25:08;6.00;;;4.50;;
6566;SDS011;3317;43.994;22.878;2023-02-22T00:27:35;6.20;;;4.07;;
6566;SDS011;3317;43.994;22.878;2023-02-22T00:30:02;7.07;;;4.00;;
6566;SDS011;3317;43.994;22.878;2023-02-22T00:32:30;5.10;;;3.70;;
6566;SDS011;3317;43.994;22.878;2023-02-22T00:34:58;6.17;;;4.20;;
6566;SDS011;3317;43.994;22.878;2023-02-22T00:37:25;6.20;;;3.70;;
6566;SDS011;3317;43.994;22.878;2023-02-22T00:39:55;5.33;;;4.23;;
6566;SDS011;3317;43.994;22.878;2023-02-22T00:42:24;6.23;;;4.40;;
6566;SDS011;3317;43.994;22.878;2023-02-22T00:44:50;6.50;;;3.97;;
6566;SDS011;3317;43.994;22.878;2023-02-22T00:47:18;6.80;;;3.80;;
6566;SDS011;3317;43.994;22.878;2023-02-22T00:49:44;5.83;;;4.23;;
6566;SDS011;3317;43.994;22.878;2023-02-22T00:52:11;6.47;;;4.57;;
6566;SDS011;3317;43.994;22.878;2023-02-22T00:54:38;5.00;;;4.10;;
6566;SDS011;3317;43.994;22.878;2023-02-22T00:57:05;5.37;;;3.70;;
6566;SDS011;3317;43.994;22.878;2023-02-22T00:59:33;5.50;;;3.87;;
6566;SDS011;3317;43.994;22.878;2023-02-22T01:02:00;6.30;;;4.23;;
6566;SDS011;3317;43.994;22.878;2023-02-22T01:04:27;5.80;;;4.80;;
6566;SDS011;3317;43.994;22.878;2023-02-22T01:06:54;7.03;;;5.10;;
6566;SDS011;3317;43.994;22.878;2023-02-22T01:09:22;7.40;;;4.80;;
6566;SDS011;3317;43.994;22.878;2023-02-22T01:11:51;6.87;;;4.33;;
6566;SDS011;3317;43.994;22.878;2023-02-22T01:14:20;4.90;;;3.97;;
6566;SDS011;3317;43.994;22.878;2023-02-22T01:16:49;6.80;;;4.37;;
6566;SDS011;3317;43.994;22.878;2023-02-22T01:19:16;5.83;;;3.73;;
6566;SDS011;3317;43.994;22.878;2023-02-22T01:21:43;7.23;;;4.37;;
6566;SDS011;3317;43.994;22.878;2023-02-22T01:24:11;7.40;;;4.27;;
6566;SDS011;3317;43.994;22.878;2023-02-22T01:26:40;9.17;;;5.70;;
6566;SDS011;3317;43.994;22.878;2023-02-22T01:29:07;9.93;;;5.80;;
6566;SDS011;3317;43.994;22.878;2023-02-22T01:31:39;7.77;;;5.50;;
6566;SDS011;3317;43.994;22.878;2023-02-22T01:34:08;6.87;;;4.90;;
6566;SDS011;3317;43.994;22.878;2023-02-22T01:36:35;9.10;;;5.83;;
6566;SDS011;3317;43.994;22.878;2023-02-22T01:39:02;8.80;;;5.77;;
6566;SDS011;3317;43.994;22.878;2023-02-22T01:41:29;10.03;;;6.60;;
6566;SDS011;3317;43.994;22.878;2023-02-22T01:43:56;8.50;;;5.93;;
6566;SDS011;3317;43.994;22.878;2023-02-22T01:46:24;8.57;;;6.17;;
6566;SDS011;3317;43.994;22.878;2023-02-22T01:48:53;10.93;;;6.53;;
6566;SDS011;3317;43.994;22.878;2023-02-22T01:51:24;10.73;;;6.20;;
6566;SDS011;3317;43.994;22.878;2023-02-22T01:53:54;9.63;;;5.47;;
6566;SDS011;3317;43.994;22.878;2023-02-22T01:56:24;8.70;;;5.20;;
6566;SDS011;3317;43.994;22.878;2023-02-22T01:58:54;8.90;;;5.57;;
6566;SDS011;3317;43.994;22.878;2023-02-22T02:01:24;8.43;;;5.47;;
6566;SDS011;3317;43.994;22.878;2023-02-22T02:03:53;7.57;;;5.30;;
6566;SDS011;3317;43.994;22.878;2023-02-22T02:06:25;8.10;;;5.50;;
6566;SDS011;3317;43.994;22.878;2023-02-22T02:08:54;8.90;;;6.23;;
6566;SDS011;3317;43.994;22.878;2023-02-22T02:11:28;8.43;;;5.37;;
6566;SDS011;3317;43.994;22.878;2023-02-22T02:13:55;8.90;;;5.30;;
6566;SDS011;3317;43.994;22.878;2023-02-22T02:16:24;11.47;;;5.40;;
6566;SDS011;3317;43.994;22.878;2023-02-22T02:18:58;8.70;;;6.07;;
6566;SDS011;3317;43.994;22.878;2023-02-22T02:27:25;8.90;;;6.03;;
6566;SDS011;3317;43.994;22.878;2023-02-22T02:30:08;12.73;;;5.63;;
6566;SDS011;3317;43.994;22.878;2023-02-22T02:33:00;8.73;;;6.03;;
6566;SDS011;3317;43.994;22.878;2023-02-22T02:35:38;8.63;;;5.60;;
6566;SDS011;3317;43.994;22.878;2023-02-22T02:38:16;9.23;;;5.70;;
6566;SDS011;3317;43.994;22.878;2023-02-22T02:40:55;10.37;;;6.03;;
6566;SDS011;3317;43.994;22.878;2023-02-22T02:43:31;8.00;;;5.47;;
6566;SDS011;3317;43.994;22.878;2023-02-22T02:46:03;7.13;;;5.50;;
6566;SDS011;3317;43.994;22.878;2023-02-22T02:48:37;11.13;;;6.10;;
6566;SDS011;3317;43.994;22.878;2023-02-22T02:51:07;7.70;;;5.60;;
6566;SDS011;3317;43.994;22.878;2023-02-22T02:53:39;8.13;;;5.73;;
6566;SDS011;3317;43.994;22.878;2023-02-22T02:56:10;9.63;;;5.90;;
6566;SDS011;3317;43.994;22.878;2023-02-22T02:58:45;8.70;;;6.60;;
6566;SDS011;3317;43.994;22.878;2023-02-22T03:01:16;8.70;;;6.10;;
6566;SDS011;3317;43.994;22.878;2023-02-22T03:03:56;10.40;;;6.37;;
6566;SDS011;3317;43.994;22.878;2023-02-22T03:06:57;10.73;;;7.33;;
6566;SDS011;3317;43.994;22.878;2023-02-22T03:09:37;8.57;;;6.27;;
6566;SDS011;3317;43.994;22.878;2023-02-22T03:12:16;11.10;;;6.17;;
6566;SDS011;3317;43.994;22.878;2023-02-22T03:14:53;11.47;;;7.00;;
6566;SDS011;3317;43.994;22.878;2023-02-22T03:17:33;11.27;;;6.20;;
6566;SDS011;3317;43.994;22.878;2023-02-22T03:20:10;13.03;;;7.80;;
6566;SDS011;3317;43.994;22.878;2023-02-22T03:22:48;9.00;;;6.53;;
6566;SDS011;3317;43.994;22.878;2023-02-22T03:25:21;8.93;;;6.60;;
6566;SDS011;3317;43.994;22.878;2023-02-22T03:27:54;15.90;;;8.10;;
6566;SDS011;3317;43.994;22.878;2023-02-22T03:30:30;12.27;;;6.17;;
6566;SDS011;3317;43.994;22.878;2023-02-22T03:33:02;8.57;;;6.63;;
6566;SDS011;3317;43.994;22.878;2023-02-22T03:35:37;13.13;;;7.43;;
6566;SDS011;3317;43.994;22.878;2023-02-22T03:38:08;10.17;;;6.83;;
6566;SDS011;3317;43.994;22.878;2023-02-22T03:40:41;9.60;;;6.53;;
6566;SDS011;3317;43.994;22.878;2023-02-22T03:43:12;12.73;;;6.60;;
6566;SDS011;3317;43.994;22.878;2023-02-22T03:45:42;12.97;;;6.87;;
6566;SDS011;3317;43.994;22.878;2023-02-22T03:48:13;10.10;;;6.53;;
6566;SDS011;3317;43.994;22.878;2023-02-22T03:50:46;9.67;;;7.07;;
6566;SDS011;3317;43.994;22.878;2023-02-22T03:53:15;10.87;;;6.70;;
6566;SDS011;3317;43.994;22.878;2023-02-22T03:55:42;8.40;;;6.40;;
6566;SDS011;3317;43.994;22.878;2023-02-22T03:58:10;9.10;;;5.70;;
6566;SDS011;3317;43.994;22.878;2023-02-22T04:00:39;12.50;;;6.87;;
6566;SDS011;3317;43.994;22.878;2023-02-22T04:03:08;9.97;;;6.97;;
6566;SDS011;3317;43.994;22.878;2023-02-22T04:05:35;9.20;;;6.53;;
6566;SDS011;3317;43.994;22.878;2023-02-22T04:08:04;22.90;;;13.90;;
6566;SDS011;3317;43.994;22.878;2023-02-22T04:10:31;12.80;;;7.40;;
6566;SDS011;3317;43.994;22.878;2023-02-22T04:12:58;10.43;;;6.93;;
6566;SDS011;3317;43.994;22.878;2023-02-22T04:15:25;10.40;;;6.47;;
6566;SDS011;3317;43.994;22.878;2023-02-22T04:17:52;12.30;;;8.10;;
6566;SDS011;3317;43.994;22.878;2023-02-22T04:20:19;18.37;;;11.33;;
6566;SDS011;3317;43.994;22.878;2023-02-22T04:22:49;21.40;;;13.60;;
6566;SDS011;3317;43.994;22.878;2023-02-22T04:25:18;9.77;;;7.13;;
6566;SDS011;3317;43.994;22.878;2023-02-22T04:27:46;13.00;;;7.20;;
6566;SDS011;3317;43.994;22.878;2023-02-22T04:30:15;10.07;;;7.73;;
6566;SDS011;3317;43.994;22.878;2023-02-22T04:32:43;10.20;;;6.73;;
6566;SDS011;3317;43.994;22.878;2023-02-22T04:35:10;10.17;;;7.07;;
6566;SDS011;3317;43.994;22.878;2023-02-22T04:37:37;15.23;;;9.97;;
6566;SDS011;3317;43.994;22.878;2023-02-22T04:40:04;18.70;;;11.10;;
6566;SDS011;3317;43.994;22.878;2023-02-22T04:42:33;16.47;;;9.83;;
6566;SDS011;3317;43.994;22.878;2023-02-22T04:45:01;13.70;;;9.07;;
6566;SDS011;3317;43.994;22.878;2023-02-22T04:47:28;14.27;;;9.60;;
6566;SDS011;3317;43.994;22.878;2023-02-22T04:49:55;14.77;;;9.10;;
6566;SDS011;3317;43.994;22.878;2023-02-22T04:52:24;14.13;;;8.70;;
6566;SDS011;3317;43.994;22.878;2023-02-22T04:54:52;15.53;;;9.97;;
6566;SDS011;3317;43.994;22.878;2023-02-22T04:57:19;20.20;;;12.63;;
6566;SDS011;3317;43.994;22.878;2023-02-22T04:59:47;24.80;;;15.43;;
6566;SDS011;3317;43.994;22.878;2023-02-22T05:02:15;22.30;;;15.23;;
6566;SDS011;3317;43.994;22.878;2023-02-22T05:04:42;19.00;;;13.60;;
6566;SDS011;3317;43.994;22.878;2023-02-22T05:07:09;23.70;;;13.70;;
6566;SDS011;3317;43.994;22.878;2023-02-22T05:09:36;17.57;;;11.33;;
6566;SDS011;3317;43.994;22.878;2023-02-22T05:12:03;15.07;;;10.00;;
6566;SDS011;3317;43.994;22.878;2023-02-22T05:14:30;12.67;;;8.73;;
6566;SDS011;3317;43.994;22.878;2023-02-22T05:16:59;15.03;;;10.10;;
6566;SDS011;3317;43.994;22.878;2023-02-22T05:19:27;17.33;;;10.63;;
6566;SDS011;3317;43.994;22.878;2023-02-22T05:21:54;18.97;;;10.87;;
6566;SDS011;3317;43.994;22.878;2023-02-22T05:24:21;14.87;;;10.30;;
6566;SDS011;3317;43.994;22.878;2023-02-22T05:26:48;17.60;;;8.80;;
6566;SDS011;3317;43.994;22.878;2023-02-22T05:29:17;12.20;;;9.50;;
6566;SDS011;3317;43.994;22.878;2023-02-22T05:31:44;15.07;;;7.90;;
6566;SDS011;3317;43.994;22.878;2023-02-22T05:34:12;13.33;;;8.40;;
6566;SDS011;3317;43.994;22.878;2023-02-22T05:36:39;13.53;;;8.63;;
6566;SDS011;3317;43.994;22.878;2023-02-22T05:39:06;11.77;;;8.47;;
6566;SDS011;3317;43.994;22.878;2023-02-22T05:41:33;17.00;;;8.17;;
6566;SDS011;3317;43.994;22.878;2023-02-22T05:44:00;18.73;;;9.73;;
6566;SDS011;3317;43.994;22.878;2023-02-22T05:46:28;14.07;;;9.30;;
6566;SDS011;3317;43.994;22.878;2023-02-22T05:48:55;16.97;;;9.53;;
6566;SDS011;3317;43.994;22.878;2023-02-22T05:51:23;16.87;;;8.50;;
6566;SDS011;3317;43.994;22.878;2023-02-22T05:53:50;17.63;;;9.90;;
6566;SDS011;3317;43.994;22.878;2023-02-22T05:56:21;17.30;;;10.90;;
6566;SDS011;3317;43.994;22.878;2023-02-22T05:58:49;14.53;;;9.90;;
6566;SDS011;3317;43.994;22.878;2023-02-22T06:01:16;18.40;;;11.90;;
6566;SDS011;3317;43.994;22.878;2023-02-22T06:03:45;17.80;;;12.30;;
6566;SDS011;3317;43.994;22.878;2023-02-22T06:06:12;16.67;;;10.30;;
6566;SDS011;3317;43.994;22.878;2023-02-22T06:08:41;16.57;;;9.47;;
6566;SDS011;3317;43.994;22.878;2023-02-22T06:11:08;13.67;;;8.13;;
6566;SDS011;3317;43.994;22.878;2023-02-22T06:13:35;14.73;;;7.00;;
6566;SDS011;3317;43.994;22.878;2023-02-22T06:16:02;10.93;;;7.00;;
6566;SDS011;3317;43.994;22.878;2023-02-22T06:18:29;10.93;;;6.90;;
6566;SDS011;3317;43.994;22.878;2023-02-22T06:20:56;13.17;;;6.97;;
6566;SDS011;3317;43.994;22.878;2023-02-22T06:23:24;12.40;;;8.03;;
6566;SDS011;3317;43.994;22.878;2023-02-22T06:25:53;14.87;;;7.50;;
6566;SDS011;3317;43.994;22.878;2023-02-22T06:28:19;17.20;;;8.83;;
6566;SDS011;3317;43.994;22.878;2023-02-22T06:30:47;19.73;;;10.87;;
6566;SDS011;3317;43.994;22.878;2023-02-22T06:33:14;23.13;;;13.70;;
6566;SDS011;3317;43.994;22.878;2023-02-22T06:35:41;25.50;;;14.80;;
6566;SDS011;3317;43.994;22.878;2023-02-22T06:38:09;25.60;;;14.67;;
6566;SDS011;3317;43.994;22.878;2023-02-22T06:40:36;28.93;;;16.03;;
6566;SDS011;3317;43.994;22.878;2023-02-22T06:43:04;27.00;;;15.03;;
6566;SDS011;3317;43.994;22.878;2023-02-22T06:45:31;19.30;;;11.47;;
6566;SDS011;3317;43.994;22.878;2023-02-22T06:47:58;15.17;;;9.17;;
6566;SDS011;3317;43.994;22.878;2023-02-22T06:50:26;17.83;;;9.77;;
6566;SDS011;3317;43.994;22.878;2023-02-22T06:52:54;13.50;;;8.67;;
6566;SDS011;3317;43.994;22.878;2023-02-22T06:55:25;13.50;;;7.83;;
6566;SDS011;3317;43.994;22.878;2023-02-22T06:57:54;15.20;;;8.10;;
6566;SDS011;3317;43.994;22.878;2023-02-22T07:00:23;11.17;;;7.00;;
6566;SDS011;3317;43.994;22.878;2023-02-22T07:02:51;14.67;;;6.77;;
6566;SDS011;3317;43.994;22.878;2023-02-22T07:05:19;11.77;;;6.20;;
6566;SDS011;3317;43.994;22.878;2023-02-22T07:07:48;11.40;;;6.37;;
6566;SDS011;3317;43.994;22.878;2023-02-22T07:10:18;10.60;;;6.40;;
6566;SDS011;3317;43.994;22.878;2023-02-22T07:12:46;14.33;;;6.63;;
6566;SDS011;3317;43.994;22.878;2023-02-22T07:15:14;19.83;;;6.70;;
6566;SDS011;3317;43.994;22.878;2023-02-22T07:17:44;21.70;;;6.60;;
6566;SDS011;3317;43.994;22.878;2023-02-22T07:20:10;22.97;;;8.20;;
6566;SDS011;3317;43.994;22.878;2023-02-22T07:22:37;21.70;;;6.23;;
6566;SDS011;3317;43.994;22.878;2023-02-22T07:25:05;12.73;;;5.70;;
6566;SDS011;3317;43.994;22.878;2023-02-22T07:27:35;18.53;;;6.57;;
6566;SDS011;3317;43.994;22.878;2023-02-22T07:30:02;16.33;;;6.10;;
6566;SDS011;3317;43.994;22.878;2023-02-22T07:32:30;12.23;;;5.10;;
6566;SDS011;3317;43.994;22.878;2023-02-22T07:34:59;18.30;;;5.30;;
6566;SDS011;3317;43.994;22.878;2023-02-22T07:37:27;7.30;;;4.73;;
6566;SDS011;3317;43.994;22.878;2023-02-22T07:39:53;10.27;;;5.07;;
6566;SDS011;3317;43.994;22.878;2023-02-22T07:42:21;12.50;;;5.00;;
6566;SDS011;3317;43.994;22.878;2023-02-22T07:44:48;7.80;;;4.43;;
6566;SDS011;3317;43.994;22.878;2023-02-22T07:47:14;11.20;;;5.60;;
6566;SDS011;3317;43.994;22.878;2023-02-22T07:49:42;8.33;;;4.90;;
6566;SDS011;3317;43.994;22.878;2023-02-22T07:52:10;9.20;;;4.03;;
6566;SDS011;3317;43.994;22.878;2023-02-22T07:54:37;11.50;;;4.53;;
6566;SDS011;3317;43.994;22.878;2023-02-22T07:57:04;6.30;;;4.07;;
6566;SDS011;3317;43.994;22.878;2023-02-22T07:59:30;7.40;;;4.37;;
6566;SDS011;3317;43.994;22.878;2023-02-22T08:01:58;8.20;;;4.27;;
6566;SDS011;3317;43.994;22.878;2023-02-22T08:04:25;6.40;;;3.60;;
6566;SDS011;3317;43.994;22.878;2023-02-22T08:06:52;7.67;;;3.93;;
6566;SDS011;3317;43.994;22.878;2023-02-22T08:09:20;5.80;;;2.90;;
6566;SDS011;3317;43.994;22.878;2023-02-22T08:11:47;5.83;;;3.30;;
6566;SDS011;3317;43.994;22.878;2023-02-22T08:14:14;7.07;;;3.33;;
6566;SDS011;3317;43.994;22.878;2023-02-22T08:16:42;5.53;;;2.70;;
6566;SDS011;3317;43.994;22.878;2023-02-22T08:19:09;6.60;;;2.77;;
6566;SDS011;3317;43.994;22.878;2023-02-22T08:21:35;2.87;;;2.50;;
6566;SDS011;3317;43.994;22.878;2023-02-22T08:24:02;7.43;;;2.90;;
6566;SDS011;3317;43.994;22.878;2023-02-22T08:26:31;5.47;;;2.97;;
6566;SDS011;3317;43.994;22.878;2023-02-22T08:28:58;7.93;;;2.97;;
6566;SDS011;3317;43.994;22.878;2023-02-22T08:31:25;10.07;;;3.00;;
6566;SDS011;3317;43.994;22.878;2023-02-22T08:33:52;4.57;;;3.20;;
6566;SDS011;3317;43.994;22.878;2023-02-22T08:36:19;3.80;;;2.50;;
6566;SDS011;3317;43.994;22.878;2023-02-22T08:38:46;4.67;;;2.97;;
6566;SDS011;3317;43.994;22.878;2023-02-22T08:41:12;4.37;;;2.20;;
6566;SDS011;3317;43.994;22.878;2023-02-22T08:43:42;4.60;;;3.20;;
6566;SDS011;3317;43.994;22.878;2023-02-22T08:46:09;7.20;;;3.40;;
6566;SDS011;3317;43.994;22.878;2023-02-22T08:48:36;5.33;;;3.13;;
6566;SDS011;3317;43.994;22.878;2023-02-22T08:51:03;4.43;;;3.43;;
6566;SDS011;3317;43.994;22.878;2023-02-22T08:53:30;5.50;;;3.00;;
6566;SDS011;3317;43.994;22.878;2023-02-22T08:55:57;3.03;;;2.47;;
6566;SDS011;3317;43.994;22.878;2023-02-22T08:58:24;6.40;;;2.73;;
6566;SDS011;3317;43.994;22.878;2023-02-22T09:00:52;3.83;;;2.70;;
6566;SDS011;3317;43.994;22.878;2023-02-22T09:03:19;7.50;;;3.07;;
6566;SDS011;3317;43.994;22.878;2023-02-22T09:05:46;3.90;;;2.57;;
6566;SDS011;3317;43.994;22.878;2023-02-22T09:08:14;4.73;;;2.90;;
6566;SDS011;3317;43.994;22.878;2023-02-22T09:10:41;4.47;;;2.40;;
6566;SDS011;3317;43.994;22.878;2023-02-22T09:13:09;5.03;;;3.00;;
6566;SDS011;3317;43.994;22.878;2023-02-22T09:15:36;5.53;;;3.17;;
6566;SDS011;3317;43.994;22.878;2023-02-22T09:18:06;8.23;;;3.30;;
6566;SDS011;3317;43.994;22.878;2023-02-22T09:20:35;3.60;;;2.63;;
6566;SDS011;3317;43.994;22.878;2023-02-22T09:23:02;2.53;;;2.17;;
6566;SDS011;3317;43.994;22.878;2023-02-22T09:25:30;3.93;;;2.30;;
6566;SDS011;3317;43.994;22.878;2023-02-22T09:27:58;5.23;;;3.00;;
6566;SDS011;3317;43.994;22.878;2023-02-22T09:30:26;5.27;;;3.03;;
6566;SDS011;3317;43.994;22.878;2023-02-22T09:32:57;6.83;;;2.37;;
6566;SDS011;3317;43.994;22.878;2023-02-22T09:35:26;11.63;;;3.93;;
6566;SDS011;3317;43.994;22.878;2023-02-22T09:37:54;4.30;;;2.80;;
6566;SDS011;3317;43.994;22.878;2023-02-22T09:40:21;3.70;;;2.60;;
6566;SDS011;3317;43.994;22.878;2023-02-22T09:43:06;3.60;;;2.30;;
6566;SDS011;3317;43.994;22.878;2023-02-22T09:46:00;4.70;;;2.70;;
6566;SDS011;3317;43.994;22.878;2023-02-22T09:48:39;7.70;;;2.90;;
6566;SDS011;3317;43.994;22.878;2023-02-22T09:51:18;4.63;;;2.80;;
6566;SDS011;3317;43.994;22.878;2023-02-22T09:53:52;6.40;;;3.30;;
6566;SDS011;3317;43.994;22.878;2023-02-22T09:56:24;7.80;;;3.20;;
6566;SDS011;3317;43.994;22.878;2023-02-22T09:58:54;5.20;;;2.90;;
6566;SDS011;3317;43.994;22.878;2023-02-22T10:01:25;4.93;;;3.10;;
6566;SDS011;3317;43.994;22.878;2023-02-22T10:03:58;3.60;;;2.87;;
6566;SDS011;3317;43.994;22.878;2023-02-22T10:06:32;5.40;;;2.43;;
6566;SDS011;3317;43.994;22.878;2023-02-22T10:09:01;4.57;;;3.00;;
6566;SDS011;3317;43.994;22.878;2023-02-22T10:11:39;6.23;;;2.80;;
6566;SDS011;3317;43.994;22.878;2023-02-22T10:14:28;6.17;;;2.50;;
6566;SDS011;3317;43.994;22.878;2023-02-22T10:17:07;8.30;;;3.07;;
6566;SDS011;3317;43.994;22.878;2023-02-22T10:19:43;4.50;;;2.80;;
6566;SDS011;3317;43.994;22.878;2023-02-22T10:22:29;5.57;;;2.73;;
6566;SDS011;3317;43.994;22.878;2023-02-22T10:25:07;12.17;;;3.17;;
6566;SDS011;3317;43.994;22.878;2023-02-22T10:27:38;7.70;;;2.77;;
6566;SDS011;3317;43.994;22.878;2023-02-22T10:30:12;8.40;;;2.93;;
6566;SDS011;3317;43.994;22.878;2023-02-22T10:32:44;6.90;;;3.13;;
6566;SDS011;3317;43.994;22.878;2023-02-22T10:35:17;6.27;;;3.30;;
6566;SDS011;3317;43.994;22.878;2023-02-22T10:37:49;10.07;;;3.97;;
6566;SDS011;3317;43.994;22.878;2023-02-22T10:40:19;8.53;;;4.37;;
6566;SDS011;3317;43.994;22.878;2023-02-22T10:42:56;7.40;;;3.20;;
6566;SDS011;3317;43.994;22.878;2023-02-22T10:45:25;8.60;;;3.33;;
6566;SDS011;3317;43.994;22.878;2023-02-22T10:47:56;6.90;;;2.73;;
6566;SDS011;3317;43.994;22.878;2023-02-22T10:50:25;9.00;;;3.40;;
6566;SDS011;3317;43.994;22.878;2023-02-22T10:52:56;9.23;;;3.43;;
6566;SDS011;3317;43.994;22.878;2023-02-22T10:55:23;7.20;;;3.70;;
6566;SDS011;3317;43.994;22.878;2023-02-22T10:57:50;5.57;;;3.13;;
6566;SDS011;3317;43.994;22.878;2023-02-22T11:00:27;3.83;;;2.43;;
6566;SDS011;3317;43.994;22.878;2023-02-22T11:02:57;7.27;;;3.27;;
6566;SDS011;3317;43.994;22.878;2023-02-22T11:05:27;5.77;;;3.07;;
6566;SDS011;3317;43.994;22.878;2023-02-22T11:08:15;11.13;;;2.90;;
6566;SDS011;3317;43.994;22.878;2023-02-22T11:10:50;2.93;;;2.20;;
6566;SDS011;3317;43.994;22.878;2023-02-22T11:13:23;6.00;;;2.50;;
6566;SDS011;3317;43.994;22.878;2023-02-22T11:15:51;4.73;;;2.80;;
6566;SDS011;3317;43.994;22.878;2023-02-22T11:18:24;8.23;;;2.60;;
6566;SDS011;3317;43.994;22.878;2023-02-22T11:20:59;4.27;;;2.23;;
6566;SDS011;3317;43.994;22.878;2023-02-22T11:23:30;6.37;;;2.70;;
6566;SDS011;3317;43.994;22.878;2023-02-22T11:26:08;4.33;;;2.83;;
6566;SDS011;3317;43.994;22.878;2023-02-22T11:28:38;5.80;;;2.70;;
6566;SDS011;3317;43.994;22.878;2023-02-22T11:31:14;4.63;;;2.50;;
6566;SDS011;3317;43.994;22.878;2023-02-22T11:33:46;7.30;;;2.67;;
6566;SDS011;3317;43.994;22.878;2023-02-22T11:36:28;3.80;;;2.40;;
6566;SDS011;3317;43.994;22.878;2023-02-22T11:38:58;4.00;;;2.43;;
6566;SDS011;3317;43.994;22.878;2023-02-22T11:41:30;4.67;;;2.83;;
6566;SDS011;3317;43.994;22.878;2023-02-22T11:44:11;4.27;;;2.90;;
6566;SDS011;3317;43.994;22.878;2023-02-22T11:46:46;2.47;;;2.17;;
6566;SDS011;3317;43.994;22.878;2023-02-22T11:49:14;4.23;;;2.30;;
6566;SDS011;3317;43.994;22.878;2023-02-22T11:51:53;4.13;;;2.50;;
6566;SDS011;3317;43.994;22.878;2023-02-22T11:54:40;4.40;;;2.20;;
6566;SDS011;3317;43.994;22.878;2023-02-22T11:57:44;4.53;;;2.47;;
6566;SDS011;3317;43.994;22.878;2023-02-22T12:00:21;4.00;;;2.47;;
6566;SDS011;3317;43.994;22.878;2023-02-22T12:03:01;3.90;;;2.60;;
6566;SDS011;3317;43.994;22.878;2023-02-22T12:06:00;4.30;;;2.60;;
6566;SDS011;3317;43.994;22.878;2023-02-22T12:08:47;4.20;;;2.80;;
6566;SDS011;3317;43.994;22.878;2023-02-22T12:11:28;7.87;;;3.10;;
6566;SDS011;3317;43.994;22.878;2023-02-22T12:14:07;4.47;;;2.90;;
6566;SDS011;3317;43.994;22.878;2023-02-22T12:16:44;6.87;;;3.00;;
6566;SDS011;3317;43.994;22.878;2023-02-22T12:19:31;7.07;;;2.77;;
6566;SDS011;3317;43.994;22.878;2023-02-22T12:22:02;4.60;;;2.37;;
6566;SDS011;3317;43.994;22.878;2023-02-22T12:24:33;3.20;;;2.10;;
6566;SDS011;3317;43.994;22.878;2023-02-22T12:27:05;7.60;;;2.60;;
6566;SDS011;3317;43.994;22.878;2023-02-22T12:29:36;4.63;;;2.47;;
6566;SDS011;3317;43.994;22.878;2023-02-22T12:32:09;7.83;;;2.83;;
6566;SDS011;3317;43.994;22.878;2023-02-22T12:34:41;4.90;;;2.73;;
6566;SDS011;3317;43.994;22.878;2023-02-22T12:37:13;7.33;;;2.87;;
6566;SDS011;3317;43.994;22.878;2023-02-22T12:39:48;4.40;;;3.03;;
6566;SDS011;3317;43.994;22.878;2023-02-22T12:42:23;5.20;;;3.13;;
6566;SDS011;3317;43.994;22.878;2023-02-22T12:44:57;5.70;;;2.67;;
6566;SDS011;3317;43.994;22.878;2023-02-22T12:47:29;6.00;;;2.93;;
6566;SDS011;3317;43.994;22.878;2023-02-22T12:50:02;5.70;;;2.93;;
6566;SDS011;3317;43.994;22.878;2023-02-22T12:52:39;5.40;;;3.00;;
6566;SDS011;3317;43.994;22.878;2023-02-22T12:55:13;5.07;;;2.77;;
6566;SDS011;3317;43.994;22.878;2023-02-22T12:57:46;4.40;;;2.70;;
6566;SDS011;3317;43.994;22.878;2023-02-22T13:00:18;4.60;;;2.50;;
6566;SDS011;3317;43.994;22.878;2023-02-22T13:02:54;4.43;;;2.73;;
6566;SDS011;3317;43.994;22.878;2023-02-22T13:05:24;7.73;;;3.00;;
6566;SDS011;3317;43.994;22.878;2023-02-22T13:07:59;5.20;;;2.97;;
6566;SDS011;3317;43.994;22.878;2023-02-22T13:10:38;2.90;;;2.10;;
6566;SDS011;3317;43.994;22.878;2023-02-22T13:13:22;7.00;;;2.90;;
6566;SDS011;3317;43.994;22.878;2023-02-22T13:15:56;3.97;;;2.80;;
6566;SDS011;3317;43.994;22.878;2023-02-22T13:18:30;5.10;;;3.30;;
6566;SDS011;3317;43.994;22.878;2023-02-22T13:21:02;5.53;;;2.90;;
6566;SDS011;3317;43.994;22.878;2023-02-22T13:23:37;6.43;;;3.00;;
6566;SDS011;3317;43.994;22.878;2023-02-22T13:26:09;4.53;;;2.47;;
6566;SDS011;3317;43.994;22.878;2023-02-22T13:28:43;3.87;;;2.63;;
6566;SDS011;3317;43.994;22.878;2023-02-22T13:34:27;8.20;;;2.87;;
6566;SDS011;3317;43.994;22.878;2023-02-22T13:37:17;5.07;;;2.87;;
6566;SDS011;3317;43.994;22.878;2023-02-22T13:40:20;2.80;;;2.40;;
6566;SDS011;3317;43.994;22.878;2023-02-22T13:43:11;3.30;;;2.80;;
6566;SDS011;3317;43.994;22.878;2023-02-22T13:45:55;2.97;;;2.60;;
6566;SDS011;3317;43.994;22.878;2023-02-22T13:48:59;5.07;;;2.53;;
6566;SDS011;3317;43.994;22.878;2023-02-22T13:51:49;4.47;;;3.27;;
6566;SDS011;3317;43.994;22.878;2023-02-22T13:54:21;3.80;;;2.87;;
6566;SDS011;3317;43.994;22.878;2023-02-22T13:56:52;3.20;;;2.50;;
6566;SDS011;3317;43.994;22.878;2023-02-22T13:59:28;10.83;;;3.40;;
6566;SDS011;3317;43.994;22.878;2023-02-22T14:01:58;7.37;;;2.70;;
6566;SDS011;3317;43.994;22.878;2023-02-22T14:13:15;5.10;;;2.40;;
6566;SDS011;3317;43.994;22.878;2023-02-22T14:18:59;6.83;;;3.10;;
6566;SDS011;3317;43.994;22.878;2023-02-22T14:21:30;6.50;;;3.20;;
6566;SDS011;3317;43.994;22.878;2023-02-22T14:24:05;4.10;;;2.67;;
6566;SDS011;3317;43.994;22.878;2023-02-22T14:26:34;7.10;;;3.40;;
6566;SDS011;3317;43.994;22.878;2023-02-22T14:29:13;3.17;;;2.50;;
6566;SDS011;3317;43.994;22.878;2023-02-22T14:31:55;8.87;;;3.40;;
6566;SDS011;3317;43.994;22.878;2023-02-22T14:34:40;5.90;;;3.43;;
6566;SDS011;3317;43.994;22.878;2023-02-22T14:37:18;8.00;;;3.50;;
6566;SDS011;3317;43.994;22.878;2023-02-22T14:39:50;5.90;;;3.27;;
6566;SDS011;3317;43.994;22.878;2023-02-22T14:42:27;8.03;;;4.07;;
6566;SDS011;3317;43.994;22.878;2023-02-22T14:44:58;4.47;;;3.37;;
6566;SDS011;3317;43.994;22.878;2023-02-22T14:47:29;3.67;;;2.80;;
6566;SDS011;3317;43.994;22.878;2023-02-22T14:50:06;8.67;;;4.27;;
6566;SDS011;3317;43.994;22.878;2023-02-22T14:52:39;5.70;;;3.83;;
6566;SDS011;3317;43.994;22.878;2023-02-22T14:55:15;6.40;;;3.90;;
6566;SDS011;3317;43.994;22.878;2023-02-22T14:57:52;4.33;;;3.10;;
6566;SDS011;3317;43.994;22.878;2023-02-22T15:00:26;16.00;;;3.77;;
6566;SDS011;3317;43.994;22.878;2023-02-22T15:03:02;4.60;;;2.70;;
6566;SDS011;3317;43.994;22.878;2023-02-22T15:05:34;7.30;;;4.27;;
6566;SDS011;3317;43.994;22.878;2023-02-22T15:08:04;5.83;;;3.40;;
6566;SDS011;3317;43.994;22.878;2023-02-22T15:10:38;7.70;;;4.10;;
6566;SDS011;3317;43.994;22.878;2023-02-22T15:13:12;4.43;;;3.90;;
6566;SDS011;3317;43.994;22.878;2023-02-22T15:15:43;5.37;;;3.30;;
6566;SDS011;3317;43.994;22.878;2023-02-22T15:18:14;5.20;;;3.87;;
6566;SDS011;3317;43.994;22.878;2023-02-22T15:20:48;10.77;;;4.10;;
6566;SDS011;3317;43.994;22.878;2023-02-22T15:23:20;8.67;;;4.20;;
6566;SDS011;3317;43.994;22.878;2023-02-22T15:25:49;6.67;;;4.77;;
6566;SDS011;3317;43.994;22.878;2023-02-22T15:28:16;6.90;;;4.23;;
6566;SDS011;3317;43.994;22.878;2023-02-22T15:30:44;9.20;;;4.70;;
6566;SDS011;3317;43.994;22.878;2023-02-22T15:33:12;8.33;;;4.80;;
6566;SDS011;3317;43.994;22.878;2023-02-22T15:35:41;6.50;;;3.90;;
6566;SDS011;3317;43.994;22.878;2023-02-22T15:38:20;12.50;;;4.00;;
6566;SDS011;3317;43.994;22.878;2023-02-22T15:40:59;7.03;;;4.17;;